Hollis, Illinois
Current Conditions -  °F | °C
As of 11:54 PM on Friday 24 Oct 2014 (Local Time) from KPIA Reporting Station
Clear Clear  
Wind Chill: 59°   Ceiling: Unl
Heat Index: 59°   Visibility: 10mi
Dew Point: 50°   Wind: 7mph
Humidity: 72%   Direction: 190°S
Pressure: 29.94"   Gusts: NA
Location:  40.6465°N, 89.6859°W
Report Text: KPIA 250454Z 19006KT 10SM CLR 15/10 A2994 RMK AO2 SLP137 T01500100
Loading
Personal Weather Stations






























Interactive Weather Map
Tropical Storm Tracking
New forecast layout! Learn more

10-Day Weather Forecast

Advertisements
Track Severe Weather on mobile